Scott, MS (38772)

5:46 PM CDT on March 29, 2015 (GMT -0500)
Mid Delta Regional | | Change Station
CLOSE
Current Station
Airport
Location: Greenville,
Elevation: 131 ft
Nearby Weather Stations
Active Advisory: Flood Advisory

Elev 131 ft 33.48 °N, 90.99 °W | Updated 53 minutes ago

Clear
Clear
76 °F
Feels Like 76 °F
N
22
Wind Variable Wind from SSW

Today
High -- | Low -- °F
--% Chance of Precip.
Yesterday
High -- | Low -- °F
Precip. -- in
6:56 AM 7:22 PM
Waxing Gibbous, 75% visible
Pressure 30.05 in
Visibility 10.0 miles
Clouds Clear
Dew Point 55 °F
Humidity 48%
Rainfall 0.00 in
Snow Depth Not available.
UV 3 out of 12
Pollen 10.60 out of 12
Air Quality Not available.
Flu Activity Not available.
METAR KGLH 292153Z AUTO 20019KT 10SM CLR 24/13 A3003 RMK AO2 SLP176 T02440128

More Conditions Fewer Conditions

Pressure 30.05 in
Visibility 10.0 miles
Clouds Clear
Dew Point 55 °F
Humidity 48%
Rainfall 0.00 in
Snow Depth Not available.
UV 3 out of 12
Pollen 10.60 out of 12
Air Quality Not available.
Flu Activity Not available.
METAR KGLH 292153Z AUTO 20019KT 10SM CLR 24/13 A3003 RMK AO2 SLP176 T02440128

More Conditions Fewer Conditions

10-Day Weather Forecast

Almanac

Astronomy

Mar. 29, 2015 Rise Set
Actual Time
Civil Twilight
Nautical Twilight
Astronomical Twilight
Moon
Length of Visible Light
Length of Day
Tomorrow will be .
, % of the Moon is Illuminated

Today's Extremes

State Highs State Lows

Community

WunderPhotos

Upload Photos

1,809,376 photos uploaded!

WunderBlogs® & News

Nearby

Air Quality

  Air Quality AQ Index Pollutant
Not available.

Snow Depth

Station Depth Elevation

Earthquake Activity

City Distance Mag. Time & Date
Minimum magnitude displayed is 2.5.

Coastal Water Temperatures

Place Temperature

Stations

Nearby Weather Stations

Station Location Temp. Windchill Dew Point Humidity Wind Precip. Elev Updated Type
                   
Flood Advisory
Statement as of 11:35 AM CDT on March 29, 2015

The Flood Advisory continues for
the Mississippi River near Arkansas City.
* Until Tuesday afternoon.
* At 11:00 am Sunday the stage was 35.3 feet.
* Flood stage is 37.0 feet.
* Forecast... the river will rise to near 35.4 feet by Sunday March
29.
* Impact... at 35.0 feet... the Road to Donaldson Point is cut off.


              Flood observed forecast 7 am crest
location stg stg day time Mon Tue Wed crest time date

Lower Mississippi River
Arkansas City 37 35.3 sun 11 am 35.3 35.0 34.6 cresting




Lat... Lon 3340 9128 3357 9128 3413 9108 3412 9066
      3358 9106 3340 9105